sensor_id;sensor_type;location;lat;lon;timestamp;P1;durP1;ratioP1;P2;durP2;ratioP2
73670;SDS011;61968;48.178;11.566;2023-11-22T00:00:50;5.90;;;3.45;;
73670;SDS011;61968;48.178;11.566;2023-11-22T00:05:43;8.55;;;3.40;;
73670;SDS011;61968;48.178;11.566;2023-11-22T00:08:09;6.10;;;3.67;;
73670;SDS011;61968;48.178;11.566;2023-11-22T00:10:37;5.50;;;3.55;;
73670;SDS011;61968;48.178;11.566;2023-11-22T00:13:04;11.77;;;5.45;;
73670;SDS011;61968;48.178;11.566;2023-11-22T00:17:56;8.50;;;4.18;;
73670;SDS011;61968;48.178;11.566;2023-11-22T00:22:49;8.52;;;4.15;;
73670;SDS011;61968;48.178;11.566;2023-11-22T00:25:16;7.60;;;4.07;;
73670;SDS011;61968;48.178;11.566;2023-11-22T00:27:53;7.30;;;3.50;;
73670;SDS011;61968;48.178;11.566;2023-11-22T00:30:20;6.78;;;3.55;;
73670;SDS011;61968;48.178;11.566;2023-11-22T00:32:48;8.05;;;3.78;;
73670;SDS011;61968;48.178;11.566;2023-11-22T00:35:15;5.72;;;3.50;;
73670;SDS011;61968;48.178;11.566;2023-11-22T00:37:41;5.65;;;2.88;;
73670;SDS011;61968;48.178;11.566;2023-11-22T00:42:37;5.15;;;2.95;;
73670;SDS011;61968;48.178;11.566;2023-11-22T00:45:06;9.13;;;3.75;;
73670;SDS011;61968;48.178;11.566;2023-11-22T00:47:33;7.53;;;3.97;;
73670;SDS011;61968;48.178;11.566;2023-11-22T00:49:59;6.25;;;3.63;;
73670;SDS011;61968;48.178;11.566;2023-11-22T00:52:26;8.18;;;4.03;;
73670;SDS011;61968;48.178;11.566;2023-11-22T00:54:53;5.47;;;3.22;;
73670;SDS011;61968;48.178;11.566;2023-11-22T00:57:20;6.30;;;3.40;;
73670;SDS011;61968;48.178;11.566;2023-11-22T01:02:14;5.80;;;3.17;;
73670;SDS011;61968;48.178;11.566;2023-11-22T01:04:40;3.58;;;2.63;;
73670;SDS011;61968;48.178;11.566;2023-11-22T01:07:07;7.72;;;3.65;;
73670;SDS011;61968;48.178;11.566;2023-11-22T01:12:00;5.63;;;3.35;;
73670;SDS011;61968;48.178;11.566;2023-11-22T01:14:26;7.22;;;3.42;;
73670;SDS011;61968;48.178;11.566;2023-11-22T01:16:53;5.88;;;3.10;;
73670;SDS011;61968;48.178;11.566;2023-11-22T01:19:21;6.68;;;3.25;;
73670;SDS011;61968;48.178;11.566;2023-11-22T01:21:48;4.45;;;3.45;;
73670;SDS011;61968;48.178;11.566;2023-11-22T01:24:14;5.90;;;3.05;;
73670;SDS011;61968;48.178;11.566;2023-11-22T01:26:41;7.03;;;3.10;;
73670;SDS011;61968;48.178;11.566;2023-11-22T01:31:36;5.90;;;3.30;;
73670;SDS011;61968;48.178;11.566;2023-11-22T01:36:32;3.72;;;2.88;;
73670;SDS011;61968;48.178;11.566;2023-11-22T01:38:58;8.70;;;3.55;;
73670;SDS011;61968;48.178;11.566;2023-11-22T01:43:51;5.25;;;2.63;;
73670;SDS011;61968;48.178;11.566;2023-11-22T01:46:21;6.20;;;3.55;;
73670;SDS011;61968;48.178;11.566;2023-11-22T01:48:49;5.75;;;3.55;;
73670;SDS011;61968;48.178;11.566;2023-11-22T01:51:17;9.52;;;3.30;;
73670;SDS011;61968;48.178;11.566;2023-11-22T01:53:45;7.15;;;3.25;;
73670;SDS011;61968;48.178;11.566;2023-11-22T01:56:13;7.03;;;3.47;;
73670;SDS011;61968;48.178;11.566;2023-11-22T01:58:41;4.15;;;3.15;;
73670;SDS011;61968;48.178;11.566;2023-11-22T02:01:08;3.45;;;2.33;;
73670;SDS011;61968;48.178;11.566;2023-11-22T02:03:36;3.13;;;2.28;;
73670;SDS011;61968;48.178;11.566;2023-11-22T02:06:04;2.28;;;2.00;;
73670;SDS011;61968;48.178;11.566;2023-11-22T02:08:31;2.10;;;1.92;;
73670;SDS011;61968;48.178;11.566;2023-11-22T02:13:27;2.17;;;1.55;;
73670;SDS011;61968;48.178;11.566;2023-11-22T02:15:54;1.40;;;1.25;;
73670;SDS011;61968;48.178;11.566;2023-11-22T02:18:21;1.35;;;1.25;;
73670;SDS011;61968;48.178;11.566;2023-11-22T02:20:48;1.08;;;1.08;;
73670;SDS011;61968;48.178;11.566;2023-11-22T02:23:16;1.67;;;1.55;;
73670;SDS011;61968;48.178;11.566;2023-11-22T02:25:43;1.50;;;0.90;;
73670;SDS011;61968;48.178;11.566;2023-11-22T02:28:10;1.10;;;1.00;;
73670;SDS011;61968;48.178;11.566;2023-11-22T02:30:37;2.38;;;1.00;;
73670;SDS011;61968;48.178;11.566;2023-11-22T02:33:04;1.42;;;1.08;;
73670;SDS011;61968;48.178;11.566;2023-11-22T02:37:57;3.40;;;1.10;;
73670;SDS011;61968;48.178;11.566;2023-11-22T02:40:25;1.77;;;1.25;;
73670;SDS011;61968;48.178;11.566;2023-11-22T02:42:53;3.17;;;1.30;;
73670;SDS011;61968;48.178;11.566;2023-11-22T02:45:24;1.73;;;1.50;;
73670;SDS011;61968;48.178;11.566;2023-11-22T02:47:52;1.10;;;0.90;;
73670;SDS011;61968;48.178;11.566;2023-11-22T02:50:19;1.42;;;1.20;;
73670;SDS011;61968;48.178;11.566;2023-11-22T02:52:45;1.02;;;0.98;;
73670;SDS011;61968;48.178;11.566;2023-11-22T02:55:12;1.65;;;1.23;;
73670;SDS011;61968;48.178;11.566;2023-11-22T02:57:41;1.45;;;1.23;;
73670;SDS011;61968;48.178;11.566;2023-11-22T03:00:08;2.55;;;1.02;;
73670;SDS011;61968;48.178;11.566;2023-11-22T03:02:38;1.15;;;0.93;;
73670;SDS011;61968;48.178;11.566;2023-11-22T03:05:06;1.63;;;1.05;;
73670;SDS011;61968;48.178;11.566;2023-11-22T03:07:33;2.42;;;1.27;;
73670;SDS011;61968;48.178;11.566;2023-11-22T03:10:01;1.10;;;1.00;;
73670;SDS011;61968;48.178;11.566;2023-11-22T03:15:05;1.25;;;0.98;;
73670;SDS011;61968;48.178;11.566;2023-11-22T03:17:32;2.45;;;1.38;;
73670;SDS011;61968;48.178;11.566;2023-11-22T03:19:59;1.98;;;1.02;;
73670;SDS011;61968;48.178;11.566;2023-11-22T03:22:25;1.50;;;1.35;;
73670;SDS011;61968;48.178;11.566;2023-11-22T03:24:52;2.15;;;1.38;;
73670;SDS011;61968;48.178;11.566;2023-11-22T03:27:19;2.10;;;1.27;;
73670;SDS011;61968;48.178;11.566;2023-11-22T03:29:47;2.35;;;1.15;;
73670;SDS011;61968;48.178;11.566;2023-11-22T03:32:15;1.10;;;1.00;;
73670;SDS011;61968;48.178;11.566;2023-11-22T03:34:42;1.58;;;1.38;;
73670;SDS011;61968;48.178;11.566;2023-11-22T03:37:07;1.02;;;0.95;;
73670;SDS011;61968;48.178;11.566;2023-11-22T03:39:34;1.45;;;1.00;;
73670;SDS011;61968;48.178;11.566;2023-11-22T03:44:27;2.45;;;1.15;;
73670;SDS011;61968;48.178;11.566;2023-11-22T03:46:55;1.13;;;1.02;;
73670;SDS011;61968;48.178;11.566;2023-11-22T03:49:23;1.40;;;1.30;;
73670;SDS011;61968;48.178;11.566;2023-11-22T03:51:49;1.58;;;1.30;;
73670;SDS011;61968;48.178;11.566;2023-11-22T03:54:16;1.83;;;1.30;;
73670;SDS011;61968;48.178;11.566;2023-11-22T03:56:43;1.25;;;1.15;;
73670;SDS011;61968;48.178;11.566;2023-11-22T03:59:10;1.85;;;1.20;;
73670;SDS011;61968;48.178;11.566;2023-11-22T04:01:37;1.30;;;1.20;;
73670;SDS011;61968;48.178;11.566;2023-11-22T04:04:04;1.42;;;1.25;;
73670;SDS011;61968;48.178;11.566;2023-11-22T04:08:59;1.85;;;1.35;;
73670;SDS011;61968;48.178;11.566;2023-11-22T04:11:26;2.72;;;1.40;;
73670;SDS011;61968;48.178;11.566;2023-11-22T04:13:54;2.63;;;1.42;;
73670;SDS011;61968;48.178;11.566;2023-11-22T04:16:20;1.90;;;1.30;;
73670;SDS011;61968;48.178;11.566;2023-11-22T04:21:13;1.50;;;1.20;;
73670;SDS011;61968;48.178;11.566;2023-11-22T04:23:41;1.83;;;1.08;;
73670;SDS011;61968;48.178;11.566;2023-11-22T04:26:08;1.20;;;1.10;;
73670;SDS011;61968;48.178;11.566;2023-11-22T04:28:34;1.70;;;1.10;;
73670;SDS011;61968;48.178;11.566;2023-11-22T04:31:01;4.65;;;1.10;;
73670;SDS011;61968;48.178;11.566;2023-11-22T04:33:29;1.45;;;1.05;;
73670;SDS011;61968;48.178;11.566;2023-11-22T04:38:22;1.73;;;1.05;;
73670;SDS011;61968;48.178;11.566;2023-11-22T04:40:50;2.25;;;1.88;;
73670;SDS011;61968;48.178;11.566;2023-11-22T04:43:16;1.70;;;1.20;;
73670;SDS011;61968;48.178;11.566;2023-11-22T04:48:09;1.50;;;1.20;;
73670;SDS011;61968;48.178;11.566;2023-11-22T04:53:02;1.08;;;0.98;;
73670;SDS011;61968;48.178;11.566;2023-11-22T04:55:28;6.15;;;1.42;;
73670;SDS011;61968;48.178;11.566;2023-11-22T04:57:56;1.67;;;1.33;;
73670;SDS011;61968;48.178;11.566;2023-11-22T05:00:23;1.88;;;1.00;;
73670;SDS011;61968;48.178;11.566;2023-11-22T05:05:16;1.40;;;1.02;;
73670;SDS011;61968;48.178;11.566;2023-11-22T05:10:09;9.95;;;5.75;;
73670;SDS011;61968;48.178;11.566;2023-11-22T05:12:36;9.82;;;6.80;;
73670;SDS011;61968;48.178;11.566;2023-11-22T05:17:31;4.53;;;3.33;;
73670;SDS011;61968;48.178;11.566;2023-11-22T05:22:24;7.47;;;3.65;;
73670;SDS011;61968;48.178;11.566;2023-11-22T05:27:17;3.17;;;2.28;;
73670;SDS011;61968;48.178;11.566;2023-11-22T05:29:43;3.58;;;2.60;;
73670;SDS011;61968;48.178;11.566;2023-11-22T05:34:37;2.63;;;2.00;;
73670;SDS011;61968;48.178;11.566;2023-11-22T05:37:05;2.17;;;1.65;;
73670;SDS011;61968;48.178;11.566;2023-11-22T05:39:32;1.30;;;1.20;;
73670;SDS011;61968;48.178;11.566;2023-11-22T05:44:25;2.72;;;1.95;;
73670;SDS011;61968;48.178;11.566;2023-11-22T05:46:52;1.58;;;1.45;;
73670;SDS011;61968;48.178;11.566;2023-11-22T05:49:20;3.35;;;1.63;;
73670;SDS011;61968;48.178;11.566;2023-11-22T05:51:47;1.98;;;1.35;;
73670;SDS011;61968;48.178;11.566;2023-11-22T05:56:41;1.35;;;1.10;;
73670;SDS011;61968;48.178;11.566;2023-11-22T05:59:08;1.20;;;0.93;;
73670;SDS011;61968;48.178;11.566;2023-11-22T06:04:01;2.70;;;1.95;;
73670;SDS011;61968;48.178;11.566;2023-11-22T06:08:55;2.10;;;1.60;;
73670;SDS011;61968;48.178;11.566;2023-11-22T06:11:22;6.85;;;2.70;;
73670;SDS011;61968;48.178;11.566;2023-11-22T06:13:50;3.28;;;2.10;;
73670;SDS011;61968;48.178;11.566;2023-11-22T06:18:43;1.40;;;1.25;;
73670;SDS011;61968;48.178;11.566;2023-11-22T06:21:09;3.42;;;1.33;;
73670;SDS011;61968;48.178;11.566;2023-11-22T06:23:38;3.15;;;1.60;;
73670;SDS011;61968;48.178;11.566;2023-11-22T06:26:04;3.53;;;1.33;;
73670;SDS011;61968;48.178;11.566;2023-11-22T06:28:31;2.08;;;1.70;;
73670;SDS011;61968;48.178;11.566;2023-11-22T06:30:57;2.65;;;1.80;;
73670;SDS011;61968;48.178;11.566;2023-11-22T06:33:24;1.88;;;1.50;;
73670;SDS011;61968;48.178;11.566;2023-11-22T06:35:50;2.78;;;1.90;;
73670;SDS011;61968;48.178;11.566;2023-11-22T06:38:17;3.88;;;1.83;;
73670;SDS011;61968;48.178;11.566;2023-11-22T06:40:44;3.45;;;2.15;;
73670;SDS011;61968;48.178;11.566;2023-11-22T06:43:11;1.85;;;1.70;;
73670;SDS011;61968;48.178;11.566;2023-11-22T06:45:37;2.20;;;1.70;;
73670;SDS011;61968;48.178;11.566;2023-11-22T06:48:04;2.38;;;2.00;;
73670;SDS011;61968;48.178;11.566;2023-11-22T06:50:31;2.15;;;1.95;;
73670;SDS011;61968;48.178;11.566;2023-11-22T06:52:58;2.33;;;1.85;;
73670;SDS011;61968;48.178;11.566;2023-11-22T06:55:24;1.88;;;1.45;;
73670;SDS011;61968;48.178;11.566;2023-11-22T06:57:53;3.40;;;2.10;;
73670;SDS011;61968;48.178;11.566;2023-11-22T07:00:20;3.63;;;2.00;;
73670;SDS011;61968;48.178;11.566;2023-11-22T07:02:47;2.45;;;1.48;;
73670;SDS011;61968;48.178;11.566;2023-11-22T07:05:13;2.80;;;2.05;;
73670;SDS011;61968;48.178;11.566;2023-11-22T07:07:40;5.40;;;2.03;;
73670;SDS011;61968;48.178;11.566;2023-11-22T07:10:07;3.63;;;1.98;;
73670;SDS011;61968;48.178;11.566;2023-11-22T07:12:36;2.72;;;2.25;;
73670;SDS011;61968;48.178;11.566;2023-11-22T07:15:06;3.03;;;2.28;;
73670;SDS011;61968;48.178;11.566;2023-11-22T07:17:34;2.83;;;2.17;;
73670;SDS011;61968;48.178;11.566;2023-11-22T07:20:01;2.75;;;1.80;;
73670;SDS011;61968;48.178;11.566;2023-11-22T07:22:33;3.95;;;2.83;;
73670;SDS011;61968;48.178;11.566;2023-11-22T07:24:59;4.45;;;2.40;;
73670;SDS011;61968;48.178;11.566;2023-11-22T07:27:27;2.20;;;1.85;;
73670;SDS011;61968;48.178;11.566;2023-11-22T07:29:54;3.38;;;2.47;;
73670;SDS011;61968;48.178;11.566;2023-11-22T07:32:22;2.67;;;2.00;;
73670;SDS011;61968;48.178;11.566;2023-11-22T07:34:48;3.35;;;2.08;;
73670;SDS011;61968;48.178;11.566;2023-11-22T07:37:18;2.83;;;2.00;;
73670;SDS011;61968;48.178;11.566;2023-11-22T07:39:46;2.55;;;2.20;;
73670;SDS011;61968;48.178;11.566;2023-11-22T07:42:14;2.58;;;1.95;;
73670;SDS011;61968;48.178;11.566;2023-11-22T07:44:41;2.75;;;2.10;;
73670;SDS011;61968;48.178;11.566;2023-11-22T07:47:07;3.33;;;2.15;;
73670;SDS011;61968;48.178;11.566;2023-11-22T07:49:39;5.55;;;2.55;;
73670;SDS011;61968;48.178;11.566;2023-11-22T07:52:07;2.25;;;2.05;;
73670;SDS011;61968;48.178;11.566;2023-11-22T07:54:36;5.22;;;2.42;;
73670;SDS011;61968;48.178;11.566;2023-11-22T07:57:04;3.25;;;2.38;;
73670;SDS011;61968;48.178;11.566;2023-11-22T07:59:30;5.03;;;2.28;;
73670;SDS011;61968;48.178;11.566;2023-11-22T08:01:57;5.05;;;3.13;;
73670;SDS011;61968;48.178;11.566;2023-11-22T08:04:23;3.33;;;2.08;;
73670;SDS011;61968;48.178;11.566;2023-11-22T08:06:51;3.58;;;2.33;;
73670;SDS011;61968;48.178;11.566;2023-11-22T08:09:21;3.05;;;2.47;;
73670;SDS011;61968;48.178;11.566;2023-11-22T08:11:48;5.07;;;3.28;;
73670;SDS011;61968;48.178;11.566;2023-11-22T08:16:41;4.13;;;2.45;;
73670;SDS011;61968;48.178;11.566;2023-11-22T08:21:34;4.40;;;2.50;;
73670;SDS011;61968;48.178;11.566;2023-11-22T08:26:29;2.92;;;2.35;;
73670;SDS011;61968;48.178;11.566;2023-11-22T08:28:56;3.45;;;2.33;;
73670;SDS011;61968;48.178;11.566;2023-11-22T08:33:49;2.67;;;2.25;;
73670;SDS011;61968;48.178;11.566;2023-11-22T08:36:15;3.17;;;2.08;;
73670;SDS011;61968;48.178;11.566;2023-11-22T08:38:43;2.67;;;1.80;;
73670;SDS011;61968;48.178;11.566;2023-11-22T08:41:11;4.47;;;2.00;;
73670;SDS011;61968;48.178;11.566;2023-11-22T08:43:38;1.90;;;1.60;;
73670;SDS011;61968;48.178;11.566;2023-11-22T08:46:05;2.88;;;2.55;;
73670;SDS011;61968;48.178;11.566;2023-11-22T08:48:33;3.53;;;1.95;;
73670;SDS011;61968;48.178;11.566;2023-11-22T08:51:00;3.13;;;2.33;;
73670;SDS011;61968;48.178;11.566;2023-11-22T08:53:28;3.63;;;2.45;;
73670;SDS011;61968;48.178;11.566;2023-11-22T08:55:55;3.47;;;2.47;;
73670;SDS011;61968;48.178;11.566;2023-11-22T08:58:23;2.78;;;2.42;;
73670;SDS011;61968;48.178;11.566;2023-11-22T09:00:50;3.00;;;2.30;;
73670;SDS011;61968;48.178;11.566;2023-11-22T09:03:17;2.97;;;2.45;;
73670;SDS011;61968;48.178;11.566;2023-11-22T09:05:44;2.40;;;1.95;;
73670;SDS011;61968;48.178;11.566;2023-11-22T09:08:11;5.15;;;2.65;;
73670;SDS011;61968;48.178;11.566;2023-11-22T09:10:40;2.60;;;2.35;;
73670;SDS011;61968;48.178;11.566;2023-11-22T09:13:07;2.65;;;2.10;;
73670;SDS011;61968;48.178;11.566;2023-11-22T09:15:35;2.85;;;2.40;;
73670;SDS011;61968;48.178;11.566;2023-11-22T09:18:03;3.22;;;2.60;;
73670;SDS011;61968;48.178;11.566;2023-11-22T09:20:31;4.38;;;2.15;;
73670;SDS011;61968;48.178;11.566;2023-11-22T09:22:57;5.57;;;1.90;;
73670;SDS011;61968;48.178;11.566;2023-11-22T09:25:24;3.22;;;2.28;;
73670;SDS011;61968;48.178;11.566;2023-11-22T09:27:53;3.42;;;2.10;;
73670;SDS011;61968;48.178;11.566;2023-11-22T09:30:24;4.18;;;2.00;;
73670;SDS011;61968;48.178;11.566;2023-11-22T09:33:04;3.20;;;2.33;;
73670;SDS011;61968;48.178;11.566;2023-11-22T09:35:32;3.13;;;2.05;;
73670;SDS011;61968;48.178;11.566;2023-11-22T09:38:00;2.55;;;1.90;;
73670;SDS011;61968;48.178;11.566;2023-11-22T09:40:27;3.45;;;2.38;;
73670;SDS011;61968;48.178;11.566;2023-11-22T09:42:57;2.72;;;2.30;;
73670;SDS011;61968;48.178;11.566;2023-11-22T09:45:24;3.33;;;1.77;;
73670;SDS011;61968;48.178;11.566;2023-11-22T09:47:51;3.42;;;1.67;;
73670;SDS011;61968;48.178;11.566;2023-11-22T09:50:21;2.75;;;1.90;;
73670;SDS011;61968;48.178;11.566;2023-11-22T09:52:52;2.30;;;1.90;;
73670;SDS011;61968;48.178;11.566;2023-11-22T09:55:22;2.63;;;1.75;;
73670;SDS011;61968;48.178;11.566;2023-11-22T09:57:54;1.88;;;1.70;;
73670;SDS011;61968;48.178;11.566;2023-11-22T10:00:21;2.40;;;1.90;;
73670;SDS011;61968;48.178;11.566;2023-11-22T10:02:52;2.28;;;2.05;;
73670;SDS011;61968;48.178;11.566;2023-11-22T10:05:20;3.47;;;2.22;;
73670;SDS011;61968;48.178;11.566;2023-11-22T10:07:46;4.05;;;2.00;;
73670;SDS011;61968;48.178;11.566;2023-11-22T10:10:13;3.95;;;2.00;;
73670;SDS011;61968;48.178;11.566;2023-11-22T10:12:43;3.22;;;1.95;;
73670;SDS011;61968;48.178;11.566;2023-11-22T10:15:11;3.22;;;2.25;;
73670;SDS011;61968;48.178;11.566;2023-11-22T10:17:38;2.30;;;2.05;;
73670;SDS011;61968;48.178;11.566;2023-11-22T10:20:05;3.17;;;2.25;;
73670;SDS011;61968;48.178;11.566;2023-11-22T10:22:43;1.92;;;1.80;;
73670;SDS011;61968;48.178;11.566;2023-11-22T10:25:10;3.33;;;1.88;;
73670;SDS011;61968;48.178;11.566;2023-11-22T10:27:38;2.10;;;1.67;;
73670;SDS011;61968;48.178;11.566;2023-11-22T10:30:06;1.98;;;1.80;;
73670;SDS011;61968;48.178;11.566;2023-11-22T10:32:34;1.92;;;1.73;;
73670;SDS011;61968;48.178;11.566;2023-11-22T10:35:03;2.30;;;1.98;;
73670;SDS011;61968;48.178;11.566;2023-11-22T10:37:32;2.20;;;1.90;;
73670;SDS011;61968;48.178;11.566;2023-11-22T10:40:01;2.50;;;1.80;;
73670;SDS011;61968;48.178;11.566;2023-11-22T10:42:30;3.20;;;1.75;;
73670;SDS011;61968;48.178;11.566;2023-11-22T10:47:24;1.92;;;1.48;;
73670;SDS011;61968;48.178;11.566;2023-11-22T10:49:55;5.28;;;1.63;;
73670;SDS011;61968;48.178;11.566;2023-11-22T10:52:21;2.63;;;1.80;;
73670;SDS011;61968;48.178;11.566;2023-11-22T10:54:55;2.25;;;2.08;;
73670;SDS011;61968;48.178;11.566;2023-11-22T10:57:32;3.08;;;2.17;;
73670;SDS011;61968;48.178;11.566;2023-11-22T11:00:06;2.60;;;1.83;;
73670;SDS011;61968;48.178;11.566;2023-11-22T11:02:37;3.30;;;2.20;;
73670;SDS011;61968;48.178;11.566;2023-11-22T11:05:09;3.45;;;1.50;;
73670;SDS011;61968;48.178;11.566;2023-11-22T11:07:43;3.15;;;1.70;;
73670;SDS011;61968;48.178;11.566;2023-11-22T11:10:22;2.30;;;1.75;;
73670;SDS011;61968;48.178;11.566;2023-11-22T11:12:50;1.80;;;1.48;;
73670;SDS011;61968;48.178;11.566;2023-11-22T11:15:18;2.40;;;1.92;;
73670;SDS011;61968;48.178;11.566;2023-11-22T11:17:46;3.05;;;2.22;;
73670;SDS011;61968;48.178;11.566;2023-11-22T11:20:15;1.55;;;1.38;;
73670;SDS011;61968;48.178;11.566;2023-11-22T11:22:42;2.00;;;1.77;;
73670;SDS011;61968;48.178;11.566;2023-11-22T11:25:13;2.47;;;1.88;;
73670;SDS011;61968;48.178;11.566;2023-11-22T11:27:40;2.50;;;2.08;;
73670;SDS011;61968;48.178;11.566;2023-11-22T11:33:09;2.00;;;1.80;;
73670;SDS011;61968;48.178;11.566;2023-11-22T11:35:37;1.95;;;1.58;;
73670;SDS011;61968;48.178;11.566;2023-11-22T11:38:04;2.38;;;1.70;;
73670;SDS011;61968;48.178;11.566;2023-11-22T11:40:34;3.20;;;1.80;;
73670;SDS011;61968;48.178;11.566;2023-11-22T11:43:01;2.72;;;1.52;;
73670;SDS011;61968;48.178;11.566;2023-11-22T11:47:56;3.10;;;1.98;;
73670;SDS011;61968;48.178;11.566;2023-11-22T11:50:22;2.20;;;2.00;;
73670;SDS011;61968;48.178;11.566;2023-11-22T11:52:49;1.73;;;1.50;;
73670;SDS011;61968;48.178;11.566;2023-11-22T11:55:15;3.47;;;1.85;;
73670;SDS011;61968;48.178;11.566;2023-11-22T12:00:08;2.00;;;1.80;;
73670;SDS011;61968;48.178;11.566;2023-11-22T12:02:39;1.50;;;1.40;;
73670;SDS011;61968;48.178;11.566;2023-11-22T12:05:07;2.97;;;1.98;;
73670;SDS011;61968;48.178;11.566;2023-11-22T12:07:34;1.85;;;1.75;;
73670;SDS011;61968;48.178;11.566;2023-11-22T12:12:26;2.38;;;2.17;;
73670;SDS011;61968;48.178;11.566;2023-11-22T12:14:53;2.90;;;1.60;;
73670;SDS011;61968;48.178;11.566;2023-11-22T12:17:21;3.50;;;2.45;;
73670;SDS011;61968;48.178;11.566;2023-11-22T12:19:48;4.57;;;2.25;;
73670;SDS011;61968;48.178;11.566;2023-11-22T12:24:42;2.28;;;1.85;;
73670;SDS011;61968;48.178;11.566;2023-11-22T12:27:09;3.13;;;1.88;;
73670;SDS011;61968;48.178;11.566;2023-11-22T12:29:36;2.75;;;1.75;;
73670;SDS011;61968;48.178;11.566;2023-11-22T12:34:29;2.90;;;2.25;;
73670;SDS011;61968;48.178;11.566;2023-11-22T12:36:56;2.30;;;2.05;;
73670;SDS011;61968;48.178;11.566;2023-11-22T12:39:24;2.50;;;2.17;;
73670;SDS011;61968;48.178;11.566;2023-11-22T12:41:51;2.80;;;1.80;;
73670;SDS011;61968;48.178;11.566;2023-11-22T12:44:19;1.73;;;1.63;;
73670;SDS011;61968;48.178;11.566;2023-11-22T12:46:47;2.45;;;2.13;;
73670;SDS011;61968;48.178;11.566;2023-11-22T12:49:15;3.97;;;2.00;;
73670;SDS011;61968;48.178;11.566;2023-11-22T12:51:48;2.28;;;1.77;;
73670;SDS011;61968;48.178;11.566;2023-11-22T12:54:15;2.25;;;1.83;;
73670;SDS011;61968;48.178;11.566;2023-11-22T12:56:43;2.13;;;1.55;;
73670;SDS011;61968;48.178;11.566;2023-11-22T12:59:10;2.05;;;1.85;;
73670;SDS011;61968;48.178;11.566;2023-11-22T13:01:37;2.55;;;2.15;;
73670;SDS011;61968;48.178;11.566;2023-11-22T13:06:30;2.08;;;1.67;;
73670;SDS011;61968;48.178;11.566;2023-11-22T13:11:23;1.77;;;1.55;;
73670;SDS011;61968;48.178;11.566;2023-11-22T13:16:17;2.50;;;1.92;;
73670;SDS011;61968;48.178;11.566;2023-11-22T13:18:44;1.73;;;1.63;;
73670;SDS011;61968;48.178;11.566;2023-11-22T13:21:10;2.47;;;1.80;;
73670;SDS011;61968;48.178;11.566;2023-11-22T13:23:37;1.40;;;1.27;;
73670;SDS011;61968;48.178;11.566;2023-11-22T13:26:03;1.80;;;1.10;;
73670;SDS011;61968;48.178;11.566;2023-11-22T13:28:31;2.38;;;1.42;;
73670;SDS011;61968;48.178;11.566;2023-11-22T13:33:25;1.48;;;1.27;;
73670;SDS011;61968;48.178;11.566;2023-11-22T13:35:53;2.63;;;1.75;;
73670;SDS011;61968;48.178;11.566;2023-11-22T13:40:46;2.00;;;1.50;;
73670;SDS011;61968;48.178;11.566;2023-11-22T13:43:12;1.63;;;1.40;;
73670;SDS011;61968;48.178;11.566;2023-11-22T13:45:39;2.55;;;1.80;;
73670;SDS011;61968;48.178;11.566;2023-11-22T13:48:07;2.20;;;2.00;;
73670;SDS011;61968;48.178;11.566;2023-11-22T13:50:36;1.98;;;1.88;;
73670;SDS011;61968;48.178;11.566;2023-11-22T13:53:03;1.75;;;1.60;;
73670;SDS011;61968;48.178;11.566;2023-11-22T13:55:30;2.33;;;1.83;;
73670;SDS011;61968;48.178;11.566;2023-11-22T13:57:57;2.20;;;1.58;;
73670;SDS011;61968;48.178;11.566;2023-11-22T14:00:26;2.50;;;1.88;;
73670;SDS011;61968;48.178;11.566;2023-11-22T14:02:57;2.40;;;1.95;;
73670;SDS011;61968;48.178;11.566;2023-11-22T14:05:31;2.60;;;1.92;;
73670;SDS011;61968;48.178;11.566;2023-11-22T14:07:58;5.07;;;2.05;;
73670;SDS011;61968;48.178;11.566;2023-11-22T14:10:25;2.17;;;1.98;;
73670;SDS011;61968;48.178;11.566;2023-11-22T14:12:53;1.83;;;1.65;;
73670;SDS011;61968;48.178;11.566;2023-11-22T14:15:25;2.53;;;1.92;;
73670;SDS011;61968;48.178;11.566;2023-11-22T14:17:52;2.00;;;1.55;;
73670;SDS011;61968;48.178;11.566;2023-11-22T14:20:19;2.45;;;1.73;;
73670;SDS011;61968;48.178;11.566;2023-11-22T14:22:47;3.83;;;2.58;;
73670;SDS011;61968;48.178;11.566;2023-11-22T14:25:14;2.40;;;2.15;;
73670;SDS011;61968;48.178;11.566;2023-11-22T14:27:41;3.55;;;2.20;;
73670;SDS011;61968;48.178;11.566;2023-11-22T14:30:09;2.72;;;2.13;;
73670;SDS011;61968;48.178;11.566;2023-11-22T14:32:39;2.25;;;1.90;;
73670;SDS011;61968;48.178;11.566;2023-11-22T14:35:07;2.90;;;2.30;;
73670;SDS011;61968;48.178;11.566;2023-11-22T14:37:34;3.58;;;1.77;;
73670;SDS011;61968;48.178;11.566;2023-11-22T14:40:05;3.50;;;2.35;;
73670;SDS011;61968;48.178;11.566;2023-11-22T14:42:38;1.70;;;1.55;;
73670;SDS011;61968;48.178;11.566;2023-11-22T14:45:06;3.10;;;2.00;;
73670;SDS011;61968;48.178;11.566;2023-11-22T14:47:33;2.50;;;1.73;;
73670;SDS011;61968;48.178;11.566;2023-11-22T14:50:01;2.15;;;1.63;;
73670;SDS011;61968;48.178;11.566;2023-11-22T14:52:29;3.15;;;1.92;;
73670;SDS011;61968;48.178;11.566;2023-11-22T14:54:56;2.33;;;1.92;;
73670;SDS011;61968;48.178;11.566;2023-11-22T14:57:26;3.05;;;2.35;;
73670;SDS011;61968;48.178;11.566;2023-11-22T14:59:53;2.70;;;2.30;;
73670;SDS011;61968;48.178;11.566;2023-11-22T15:02:19;2.92;;;2.08;;
73670;SDS011;61968;48.178;11.566;2023-11-22T15:04:46;3.50;;;2.15;;
73670;SDS011;61968;48.178;11.566;2023-11-22T15:07:13;1.75;;;1.63;;
73670;SDS011;61968;48.178;11.566;2023-11-22T15:09:39;3.45;;;2.40;;
73670;SDS011;61968;48.178;11.566;2023-11-22T15:12:06;2.75;;;2.05;;
73670;SDS011;61968;48.178;11.566;2023-11-22T15:14:35;4.18;;;2.38;;
73670;SDS011;61968;48.178;11.566;2023-11-22T15:17:02;2.70;;;2.50;;
73670;SDS011;61968;48.178;11.566;2023-11-22T15:19:29;4.55;;;2.00;;
73670;SDS011;61968;48.178;11.566;2023-11-22T15:24:25;2.97;;;2.25;;
73670;SDS011;61968;48.178;11.566;2023-11-22T15:26:52;4.22;;;1.88;;
73670;SDS011;61968;48.178;11.566;2023-11-22T15:31:46;1.80;;;1.70;;
73670;SDS011;61968;48.178;11.566;2023-11-22T15:34:13;4.05;;;2.17;;
73670;SDS011;61968;48.178;11.566;2023-11-22T15:36:39;4.60;;;2.70;;
73670;SDS011;61968;48.178;11.566;2023-11-22T15:39:06;4.18;;;2.60;;
73670;SDS011;61968;48.178;11.566;2023-11-22T15:41:36;2.50;;;1.80;;
73670;SDS011;61968;48.178;11.566;2023-11-22T15:44:02;2.40;;;1.95;;
73670;SDS011;61968;48.178;11.566;2023-11-22T15:46:29;3.00;;;1.92;;
73670;SDS011;61968;48.178;11.566;2023-11-22T15:48:57;3.47;;;2.22;;
73670;SDS011;61968;48.178;11.566;2023-11-22T15:51:23;2.35;;;1.77;;
73670;SDS011;61968;48.178;11.566;2023-11-22T15:56:16;2.60;;;1.83;;
73670;SDS011;61968;48.178;11.566;2023-11-22T15:58:43;2.97;;;2.15;;
73670;SDS011;61968;48.178;11.566;2023-11-22T16:01:10;2.08;;;1.90;;
73670;SDS011;61968;48.178;11.566;2023-11-22T16:03:36;2.88;;;2.00;;
73670;SDS011;61968;48.178;11.566;2023-11-22T16:06:06;3.08;;;2.40;;
73670;SDS011;61968;48.178;11.566;2023-11-22T16:08:34;4.75;;;2.15;;
73670;SDS011;61968;48.178;11.566;2023-11-22T16:14:03;16.52;;;4.45;;
73670;SDS011;61968;48.178;11.566;2023-11-22T16:18:56;14.65;;;7.40;;
73670;SDS011;61968;48.178;11.566;2023-11-22T16:21:24;4.75;;;2.70;;
73670;SDS011;61968;48.178;11.566;2023-11-22T16:23:51;2.80;;;2.40;;
73670;SDS011;61968;48.178;11.566;2023-11-22T16:26:18;5.03;;;2.40;;
73670;SDS011;61968;48.178;11.566;2023-11-22T16:28:45;3.25;;;2.58;;
73670;SDS011;61968;48.178;11.566;2023-11-22T16:31:13;4.10;;;2.75;;
73670;SDS011;61968;48.178;11.566;2023-11-22T16:33:40;2.83;;;2.58;;
73670;SDS011;61968;48.178;11.566;2023-11-22T16:36:07;2.65;;;2.10;;
73670;SDS011;61968;48.178;11.566;2023-11-22T16:38:35;3.75;;;2.80;;